Rhinelander Oneida County Airport
KRHI : now visible

Airfield :











YOU CAN JOIN US ON...

 
LOGIN :

Register | Disclaimer

   EN    FR    IT 

 









Legend :    VFR   Marginal VFR   IFR   Intensive IFR   Very Intensive IFR
Visi :
Ceiling :
>= 8 km
>= 3000ft
5 to 8 km
1000 to 3000 ft
1500m to 5 km
500 to 1000 ft
800 to 1500m
200 to 500 ft
< 800m
< 200 ft
Symbols :   Thunderstorms  Fog  Heavy snow  Heavy precipitations  Wind > 20 kt






- Airport Elevation : 1624 ft
- IATA code : RHI


KRHI - Rhinelander Oneida County

CURRENT METAR :
  • 252353Z AUTO 04003KT 10SM FEW011 FEW030 22/18 A2990 RMK AO2 SLP122 60018 T02170183 10267 20200 53001

EXPIRED METARs :
  • 252336Z AUTO 05004KT 10SM SCT012 BKN046 22/18 A2991 RMK AO2 LTG DSNT SE T02170183
  • 252320Z AUTO VRB04KT 10SM BKN012 OVC048 22/19 A2990 RMK AO2 LTG DSNT E AND SE T02220189
  • 252253Z AUTO 00000KT 10SM FEW049 23/19 A2990 RMK AO2 LTG DSNT SE SLP119 T02280189
  • 252226Z AUTO 02003KT 10SM SCT009 BKN038 BKN060 22/19 A2990 RMK AO2 LTG DSNT S T02220189
  • 252202Z AUTO VRB03KT 10SM FEW009 BKN013 BKN036 22/19 A2990 RMK AO2 LTG DSNT SE T02220189
  • 252153Z AUTO 00000KT 10SM BKN013 BKN048 BKN060 22/18 A2990 RMK AO2 LTG DSNT SE AND S RAE46 SLP119 P0000 T02170183

TAF KRHI
Valid from the 26 at 00:00 until the 27 at 00:00 UTC


252339Z 2600/2624 VRB03KT P6SM SCT012 BKN040
TEMPO 2600/2602 -SHRA BKN012
FM260300 VRB03KT P6SM BKN100
FM260900 VRB03KT P6SM VCSH OVC070
FM261300 19007G15KT P6SM SCT040
TEMPO 2617/2621 3SM +TSRA OVC025CB
KZMP FIR / North America



MET'MAP, your aeronautical weather chart ! - Copyright ORBIFLY December 2007 - Disclaimer

ORBIFLY MET'MAP TEAM :

Programming & Development : Alexandra Zaïnal
Concept & original design : Baudouin d'Aumeries
Assistance for programming : Marc-Olivier Méhu
Technical & hardware support : Manuel Goepfert

Contact : metmap@orbifly.com




SOURCES & CREDITS :

   NOAA       Earth
Advisory